createdAt,value
2018-12-20T00:01:59.294Z,83.27
2018-12-20T00:04:32.112Z,85.10
2018-12-20T00:07:05.062Z,85.27
2018-12-20T00:09:38.692Z,85.77
2018-12-20T00:12:12.238Z,72.27
2018-12-20T00:14:46.184Z,73.57
2018-12-20T00:17:25.624Z,73.07
2018-12-20T00:19:58.731Z,72.67
2018-12-20T00:22:31.532Z,70.50
2018-12-20T00:25:01.651Z,68.70
2018-12-20T00:27:31.676Z,69.33
2018-12-20T00:30:04.934Z,67.13
2018-12-20T00:32:37.664Z,64.47
2018-12-20T00:35:07.962Z,65.43
2018-12-20T00:37:41.372Z,65.53
2018-12-20T00:40:15.269Z,66.63
2018-12-20T00:42:49.132Z,67.47
2018-12-20T00:45:28.478Z,72.60
2018-12-20T00:47:59.020Z,70.27
2018-12-20T00:50:35.764Z,68.47
2018-12-20T00:53:09.626Z,68.57
2018-12-20T00:55:39.519Z,65.60
2018-12-20T00:58:14.606Z,65.27
2018-12-20T01:00:55.845Z,65.87
2018-12-20T01:03:29.513Z,64.27
2018-12-20T01:06:03.139Z,70.33
2018-12-20T01:08:33.275Z,71.10
2018-12-20T01:11:06.924Z,70.70
2018-12-20T01:13:37.252Z,70.23
2018-12-20T01:16:11.610Z,72.40
2018-12-20T01:28:22.436Z,68.73
2018-12-20T01:30:53.197Z,69.87
2018-12-20T01:33:26.821Z,77.57
2018-12-20T01:35:57.610Z,73.00
2018-12-20T01:38:31.091Z,76.37
2018-12-20T01:41:04.039Z,78.90
2018-12-20T01:43:38.234Z,75.10
2018-12-20T01:46:17.832Z,73.27
2018-12-20T01:48:50.519Z,75.50
2018-12-20T01:51:20.475Z,70.43
2018-12-20T01:53:53.933Z,73.00
2018-12-20T01:56:26.884Z,76.17
2018-12-20T01:59:00.802Z,70.13
2018-12-20T02:01:34.433Z,73.17
2018-12-20T02:04:09.337Z,69.83
2018-12-20T02:06:46.048Z,67.37
2018-12-20T02:09:19.944Z,70.30
2018-12-20T02:11:50.137Z,72.60
2018-12-20T02:14:26.891Z,67.60
2018-12-20T02:17:01.021Z,65.87
2018-12-20T02:19:34.223Z,68.90
2018-12-20T02:22:07.927Z,69.00
2018-12-20T02:24:43.446Z,66.80
2018-12-20T02:27:16.368Z,69.67
2018-12-20T02:29:46.502Z,71.03
2018-12-20T02:32:16.366Z,65.00
2018-12-20T02:34:47.511Z,66.93
2018-12-20T02:37:25.903Z,68.20
2018-12-20T02:40:00.181Z,70.30
2018-12-20T02:42:39.905Z,66.80
2018-12-20T02:45:13.026Z,65.77
2018-12-20T02:47:43.416Z,66.50
2018-12-20T02:50:17.336Z,70.03
2018-12-20T02:52:51.385Z,70.63
2018-12-20T02:55:31.019Z,67.33
2018-12-20T02:58:05.107Z,68.33
2018-12-20T03:00:39.831Z,68.07
2018-12-20T03:03:16.566Z,65.50
2018-12-20T03:05:50.267Z,66.87
2018-12-20T03:08:24.431Z,68.67
2018-12-20T03:10:57.952Z,71.40
2018-12-20T03:13:36.961Z,71.97
2018-12-20T03:16:10.931Z,70.83
2018-12-20T03:18:45.268Z,68.67
2018-12-20T03:21:18.497Z,68.67
2018-12-20T03:23:52.775Z,72.93
2018-12-20T03:26:27.473Z,69.00
2018-12-20T03:28:58.468Z,70.73
2018-12-20T03:31:29.074Z,68.77
2018-12-20T03:34:03.603Z,70.13
2018-12-20T03:36:36.591Z,72.40
2018-12-20T03:39:09.532Z,70.47
2018-12-20T03:41:44.273Z,70.30
2018-12-20T03:44:21.845Z,70.67
2018-12-20T03:46:57.130Z,68.40
2018-12-20T03:49:31.176Z,72.90
2018-12-20T03:52:06.129Z,75.97
2018-12-20T03:54:45.232Z,78.43
2018-12-20T03:57:24.877Z,85.37
2018-12-20T04:00:04.296Z,89.83
2018-12-20T04:02:38.162Z,104.57
2018-12-20T04:05:14.487Z,103.33
2018-12-20T04:07:48.399Z,93.70
2018-12-20T04:10:18.723Z,87.47
2018-12-20T04:12:48.643Z,86.03
2018-12-20T04:15:19.477Z,83.20
2018-12-20T04:17:54.193Z,76.13
2018-12-20T04:20:28.862Z,69.47
2018-12-20T04:22:59.663Z,75.73
2018-12-20T04:25:33.183Z,72.67
2018-12-20T04:28:08.158Z,69.77
2018-12-20T04:30:41.840Z,78.27
2018-12-20T04:33:15.830Z,76.90
2018-12-20T04:35:50.154Z,77.10
2018-12-20T04:38:24.885Z,68.83
2018-12-20T04:41:00.007Z,76.53
2018-12-20T04:43:30.360Z,70.47
2018-12-20T04:46:04.195Z,68.43
2018-12-20T04:48:38.042Z,66.30
2018-12-20T04:51:11.319Z,68.23
2018-12-20T04:53:44.362Z,67.73
2018-12-20T04:56:18.235Z,67.07
2018-12-20T04:58:53.115Z,68.77
2018-12-20T05:01:31.908Z,66.40
2018-12-20T05:04:07.058Z,69.93
2018-12-20T05:06:44.615Z,64.60
2018-12-20T05:09:21.481Z,63.87
2018-12-20T05:11:56.100Z,64.13
2018-12-20T05:14:30.065Z,62.20
2018-12-20T05:17:05.032Z,63.27
2018-12-20T05:19:35.775Z,61.00
2018-12-20T05:22:06.581Z,61.33
2018-12-20T05:24:40.193Z,62.80
2018-12-20T05:27:17.654Z,63.90
2018-12-20T05:29:51.037Z,63.93
2018-12-20T05:32:26.016Z,63.80
2018-12-20T05:35:00.109Z,64.50
2018-12-20T05:37:31.319Z,62.33
2018-12-20T05:40:05.500Z,64.30
2018-12-20T05:42:35.919Z,66.03
2018-12-20T05:45:13.156Z,77.07
2018-12-20T05:47:43.359Z,70.60
2018-12-20T05:50:19.635Z,67.80
2018-12-20T05:52:54.665Z,65.23
2018-12-20T05:55:29.579Z,63.70
2018-12-20T05:58:03.919Z,64.80
2018-12-20T06:00:37.177Z,65.77
2018-12-20T06:03:07.013Z,66.70
2018-12-20T06:05:44.163Z,63.87
2018-12-20T06:08:18.066Z,68.63
2018-12-20T06:10:49.013Z,64.47
2018-12-20T06:13:21.983Z,64.37
2018-12-20T06:15:56.563Z,64.30
2018-12-20T06:18:30.441Z,64.93
2018-12-20T06:21:05.714Z,68.83
2018-12-20T06:23:36.099Z,68.27
2018-12-20T06:26:13.051Z,65.47
2018-12-20T06:28:47.202Z,63.70
2018-12-20T06:31:21.293Z,64.07
2018-12-20T06:33:56.807Z,64.90
2018-12-20T06:36:29.941Z,65.30
2018-12-20T06:39:04.229Z,65.87
2018-12-20T06:41:39.414Z,64.23
2018-12-20T06:44:18.973Z,63.67
2018-12-20T06:46:51.495Z,67.37
2018-12-20T06:49:24.221Z,62.40
2018-12-20T06:51:59.587Z,65.30
2018-12-20T06:54:33.754Z,64.43
2018-12-20T06:57:06.692Z,69.20
2018-12-20T06:59:39.392Z,74.33
2018-12-20T07:02:14.157Z,83.10
2018-12-20T07:04:43.956Z,81.27
2018-12-20T07:07:18.202Z,82.70
2018-12-20T07:09:52.303Z,77.83
2018-12-20T07:12:25.098Z,78.70
2018-12-20T07:14:58.649Z,85.27
2018-12-20T07:17:32.746Z,83.73
2018-12-20T07:20:09.368Z,103.03
2018-12-20T07:22:43.185Z,102.60
2018-12-20T07:25:16.534Z,95.77
2018-12-20T07:27:52.184Z,94.50
2018-12-20T07:30:25.792Z,90.27
2018-12-20T07:32:55.970Z,87.43
2018-12-20T07:35:26.676Z,85.57
2018-12-20T07:38:00.180Z,85.67
2018-12-20T07:40:38.219Z,84.63
2018-12-20T07:43:12.012Z,83.70
2018-12-20T07:45:45.768Z,78.20
2018-12-20T07:48:20.429Z,78.30
2018-12-20T07:50:53.102Z,81.53
2018-12-20T08:03:05.872Z,87.00
2018-12-20T08:05:38.902Z,88.13
2018-12-20T08:08:13.695Z,90.20
2018-12-20T08:10:46.716Z,103.20
2018-12-20T08:13:21.163Z,94.90
2018-12-20T08:15:59.445Z,98.23
2018-12-20T08:18:33.726Z,104.53
2018-12-20T08:21:09.689Z,100.63
2018-12-20T08:23:42.352Z,97.80
2018-12-20T08:26:15.860Z,93.83
2018-12-20T08:28:48.490Z,91.47
2018-12-20T08:31:23.364Z,85.90
2018-12-20T08:33:53.461Z,77.23
2018-12-20T08:36:27.911Z,78.73
2018-12-20T08:38:57.981Z,77.33
2018-12-20T08:41:30.501Z,73.20
2018-12-20T08:44:07.309Z,70.97
2018-12-20T08:46:40.116Z,77.73
2018-12-20T08:49:10.713Z,74.87
2018-12-20T08:51:48.983Z,76.10
2018-12-20T08:54:20.323Z,80.43
2018-12-20T08:56:50.181Z,78.23
2018-12-20T08:59:24.062Z,83.73
2018-12-20T09:01:56.735Z,88.10
2018-12-20T09:04:26.775Z,84.53
2018-12-20T09:06:59.096Z,87.30
2018-12-20T09:09:32.875Z,87.13
2018-12-20T09:12:02.989Z,82.90
2018-12-20T09:14:36.531Z,79.73
2018-12-20T09:17:10.335Z,83.80
2018-12-20T09:19:40.357Z,81.63
2018-12-20T09:22:11.426Z,80.50
2018-12-20T09:24:42.481Z,83.90
2018-12-20T09:27:15.597Z,83.73
2018-12-20T09:29:48.332Z,83.70
2018-12-20T09:32:18.552Z,81.90
2018-12-20T09:34:49.191Z,79.23
2018-12-20T09:37:20.667Z,74.83
2018-12-20T09:39:50.685Z,75.67
2018-12-20T09:42:23.153Z,80.23
2018-12-20T09:44:53.209Z,75.47
2018-12-20T09:50:38.319Z,73.83
2018-12-20T09:53:10.849Z,72.73
2018-12-20T09:55:47.796Z,73.77
2018-12-20T09:58:17.917Z,72.00
2018-12-20T10:00:49.154Z,78.63
2018-12-20T10:03:20.487Z,77.00
2018-12-20T10:05:53.664Z,78.67
2018-12-20T10:08:23.957Z,76.63
2018-12-20T10:10:55.344Z,81.87
2018-12-20T10:13:28.036Z,81.63
2018-12-20T10:16:04.704Z,85.27
2018-12-20T10:18:37.576Z,90.83
2018-12-20T10:21:08.528Z,89.17
2018-12-20T10:23:45.182Z,86.53
2018-12-20T10:26:15.844Z,85.30
2018-12-20T10:28:50.676Z,83.20
2018-12-20T10:31:25.662Z,81.03
2018-12-20T10:34:02.168Z,83.40
2018-12-20T10:36:30.009Z,84.63
2018-12-20T10:39:00.740Z,85.47
2018-12-20T10:41:28.454Z,87.33
2018-12-20T10:43:55.564Z,86.77
2018-12-20T10:46:29.890Z,90.73
2018-12-20T10:49:00.516Z,92.57
2018-12-20T10:54:17.572Z,92.43
2018-12-20T10:56:51.084Z,91.80
2018-12-20T10:59:24.337Z,100.47
2018-12-20T11:01:54.358Z,98.07
2018-12-20T11:04:27.421Z,101.10
2018-12-20T11:07:02.708Z,99.87
2018-12-20T11:09:35.288Z,103.50
2018-12-20T11:12:08.586Z,100.07
2018-12-20T11:14:41.324Z,104.63
2018-12-20T11:17:09.103Z,107.33
2018-12-20T11:19:45.966Z,104.10
2018-12-20T11:22:12.771Z,103.50
2018-12-20T11:24:40.076Z,103.47
2018-12-20T11:27:07.814Z,104.07
2018-12-20T11:29:38.384Z,104.57
2018-12-20T11:32:07.085Z,109.17
2018-12-20T11:34:33.970Z,108.33
2018-12-20T11:37:00.732Z,111.07
2018-12-20T11:39:27.494Z,114.30
2018-12-20T11:41:56.294Z,110.50
2018-12-20T11:44:23.103Z,112.17
2018-12-20T11:46:56.109Z,108.03
2018-12-20T11:49:23.029Z,108.00
2018-12-20T11:51:49.768Z,107.33
2018-12-20T11:54:18.486Z,103.70
2018-12-20T11:56:45.303Z,87.33
2018-12-20T11:59:12.070Z,73.27
2018-12-20T12:01:38.840Z,67.93
2018-12-20T12:04:05.698Z,68.20
2018-12-20T12:06:32.546Z,64.53
2018-12-20T12:08:59.330Z,62.33
2018-12-20T12:11:27.470Z,64.67
2018-12-20T12:13:54.569Z,58.37
2018-12-20T12:16:25.079Z,56.90
2018-12-20T12:18:57.300Z,59.93
2018-12-20T12:21:36.112Z,57.10
2018-12-20T12:24:03.684Z,52.77
2018-12-20T12:26:37.032Z,49.43
2018-12-20T12:29:06.813Z,42.70
2018-12-20T12:31:40.000Z,42.13
2018-12-20T12:34:07.322Z,40.40
2018-12-20T12:36:37.154Z,40.10
2018-12-20T12:39:05.990Z,37.20
2018-12-20T12:41:32.971Z,36.37
2018-12-20T12:44:03.483Z,39.47
2018-12-20T12:46:37.993Z,36.07
2018-12-20T12:49:07.680Z,37.13
2018-12-20T12:51:40.227Z,33.27
2018-12-20T12:54:13.010Z,33.70
2018-12-20T12:56:42.896Z,33.70
2018-12-20T12:59:13.517Z,33.83
2018-12-20T13:01:43.413Z,31.43
2018-12-20T13:04:16.630Z,32.03
2018-12-20T13:06:47.048Z,31.93
2018-12-20T13:09:19.762Z,31.53
2018-12-20T13:11:52.724Z,33.23
2018-12-20T13:14:27.077Z,32.80
2018-12-20T13:16:59.744Z,30.60
2018-12-20T13:19:33.563Z,29.80
2018-12-20T13:22:07.234Z,29.33
2018-12-20T13:24:40.362Z,29.40
2018-12-20T13:27:10.948Z,29.53
2018-12-20T13:29:45.209Z,28.93
2018-12-20T13:32:15.912Z,29.00
2018-12-20T13:34:46.606Z,29.00
2018-12-20T13:37:17.532Z,30.07
2018-12-20T13:39:47.415Z,30.97
2018-12-20T13:42:21.938Z,29.53
2018-12-20T13:44:52.101Z,27.70
2018-12-20T13:47:26.475Z,31.00
2018-12-20T13:49:56.413Z,28.83
2018-12-20T13:52:31.775Z,30.20
2018-12-20T13:55:05.952Z,30.47
2018-12-20T13:57:36.127Z,29.60
2018-12-20T14:00:11.412Z,30.43
2018-12-20T14:02:44.995Z,34.60
2018-12-20T14:05:16.533Z,31.03
2018-12-20T14:07:46.600Z,28.60
2018-12-20T14:10:16.543Z,31.33
2018-12-20T14:12:50.403Z,29.70
2018-12-20T14:15:20.238Z,30.20
2018-12-20T14:17:54.650Z,29.13
2018-12-20T14:20:28.348Z,28.57
2018-12-20T14:22:58.828Z,28.63
2018-12-20T14:25:37.986Z,28.03
2018-12-20T14:28:15.201Z,27.80
2018-12-20T14:30:49.863Z,27.10
2018-12-20T14:33:23.924Z,25.27
2018-12-20T14:35:53.961Z,26.73
2018-12-20T14:38:26.676Z,26.43
2018-12-20T14:41:06.614Z,27.73
2018-12-20T14:43:41.720Z,26.23
2018-12-20T14:46:14.400Z,25.30
2018-12-20T14:48:45.640Z,24.80
2018-12-20T14:51:15.877Z,24.77
2018-12-20T14:53:49.603Z,24.63
2018-12-20T14:56:24.447Z,25.87
2018-12-20T14:58:55.633Z,24.67
2018-12-20T15:01:32.470Z,25.23
2018-12-20T15:04:06.265Z,25.17
2018-12-20T15:06:37.905Z,26.23
2018-12-20T15:09:10.985Z,26.67
2018-12-20T15:11:41.137Z,26.80
2018-12-20T15:14:11.625Z,25.77
2018-12-20T15:16:42.421Z,26.93
2018-12-20T15:19:17.775Z,25.00
2018-12-20T15:21:47.799Z,23.73
2018-12-20T15:24:18.749Z,23.87
2018-12-20T15:26:49.398Z,25.90
2018-12-20T15:29:23.086Z,25.90
2018-12-20T15:31:56.555Z,21.27
2018-12-20T15:34:30.475Z,24.83
2018-12-20T15:37:03.421Z,26.43
2018-12-20T15:39:37.782Z,28.37
2018-12-20T15:42:15.233Z,26.70
2018-12-20T15:44:48.685Z,25.70
2018-12-20T15:47:21.249Z,26.63
2018-12-20T15:49:51.181Z,25.70
2018-12-20T15:52:23.884Z,24.60
2018-12-20T15:54:58.003Z,26.40
2018-12-20T15:57:34.101Z,27.93
2018-12-20T16:00:07.958Z,26.73
2018-12-20T16:02:40.843Z,25.70
2018-12-20T16:05:10.961Z,24.87
2018-12-20T16:07:45.973Z,26.97
2018-12-20T16:10:19.228Z,27.27
2018-12-20T16:12:59.491Z,26.10
2018-12-20T16:15:30.567Z,25.27
2018-12-20T16:18:04.432Z,26.30
2018-12-20T16:20:37.492Z,26.70
2018-12-20T16:23:10.327Z,26.43
2018-12-20T16:25:43.160Z,26.20
2018-12-20T16:28:14.095Z,26.27
2018-12-20T16:30:47.217Z,26.50
2018-12-20T16:33:21.003Z,26.67
2018-12-20T16:35:51.855Z,27.77
2018-12-20T16:38:24.505Z,29.27
2018-12-20T16:40:57.545Z,28.90
2018-12-20T16:43:31.006Z,30.23
2018-12-20T16:46:01.638Z,28.10
2018-12-20T16:48:36.177Z,27.97
2018-12-20T16:51:07.733Z,30.30
2018-12-20T16:53:41.678Z,30.13
2018-12-20T16:56:16.353Z,32.27
2018-12-20T16:58:51.301Z,31.63
2018-12-20T17:01:24.445Z,30.57
2018-12-20T17:03:58.831Z,29.70
2018-12-20T17:06:31.622Z,31.50
2018-12-20T17:09:04.623Z,33.13
2018-12-20T17:11:34.781Z,32.00
2018-12-20T17:14:07.587Z,32.67
2018-12-20T17:16:37.714Z,32.53
2018-12-20T17:19:22.022Z,31.90
2018-12-20T17:21:51.566Z,32.23
2018-12-20T17:24:21.783Z,31.30
2018-12-20T17:26:55.590Z,31.87
2018-12-20T17:29:25.726Z,32.80
2018-12-20T17:32:01.087Z,33.13
2018-12-20T17:34:35.412Z,30.57
2018-12-20T17:37:09.619Z,31.37
2018-12-20T17:39:42.986Z,34.47
2018-12-20T17:42:15.887Z,34.20
2018-12-20T17:44:46.195Z,31.70
2018-12-20T17:47:16.136Z,31.63
2018-12-20T17:49:46.873Z,33.07
2018-12-20T17:52:17.950Z,31.33
2018-12-20T17:54:47.916Z,32.30
2018-12-20T17:57:17.779Z,30.63
2018-12-20T17:59:52.731Z,30.90
2018-12-20T18:02:22.479Z,32.47
2018-12-20T18:04:55.333Z,32.73
2018-12-20T18:07:26.192Z,32.17
2018-12-20T18:09:57.632Z,31.40
2018-12-20T18:12:31.062Z,31.60
2018-12-20T18:15:04.047Z,32.53
2018-12-20T18:17:52.835Z,31.70
2018-12-20T18:20:24.116Z,30.57
2018-12-20T18:22:58.167Z,30.10
2018-12-20T18:25:26.923Z,32.43
2018-12-20T18:28:06.257Z,32.97
2018-12-20T18:30:41.183Z,31.90
2018-12-20T18:33:11.592Z,33.93
2018-12-20T18:35:46.671Z,32.90
2018-12-20T18:38:18.332Z,35.50
2018-12-20T18:40:50.965Z,33.20
2018-12-20T18:43:25.381Z,35.00
2018-12-20T18:45:54.013Z,36.27
2018-12-20T18:48:36.737Z,34.33
2018-12-20T18:51:14.142Z,34.20
2018-12-20T18:53:44.463Z,35.57
2018-12-20T18:56:19.186Z,35.37
2018-12-20T18:58:53.880Z,34.93
2018-12-20T19:01:36.729Z,32.90
2018-12-20T19:04:09.863Z,36.33
2018-12-20T19:06:47.828Z,34.43
2018-12-20T19:09:29.283Z,34.00
2018-12-20T19:12:03.761Z,35.13
2018-12-20T19:14:36.848Z,35.40
2018-12-20T19:17:14.007Z,33.73
2018-12-20T19:25:34.420Z,36.47
2018-12-20T19:31:04.963Z,37.40
2018-12-20T19:33:35.419Z,38.57
2018-12-20T19:38:47.363Z,39.03
2018-12-20T19:41:21.701Z,37.97
2018-12-20T19:49:44.314Z,36.70
2018-12-20T19:52:25.923Z,38.23
2018-12-20T19:55:00.434Z,36.77
2018-12-20T19:57:35.537Z,35.80
2018-12-20T20:02:57.134Z,34.00
2018-12-20T20:05:32.556Z,35.60
2018-12-20T20:08:07.512Z,36.20
2018-12-20T20:10:50.306Z,33.97
2018-12-20T20:13:21.035Z,34.83
2018-12-20T20:15:57.626Z,33.93
2018-12-20T20:18:30.997Z,32.80
2018-12-20T20:21:10.926Z,32.53
2018-12-20T20:23:45.021Z,33.70
2018-12-20T20:26:22.624Z,33.43
2018-12-20T20:28:57.686Z,33.90
2018-12-20T20:31:27.986Z,35.40
2018-12-20T20:33:55.721Z,34.37
2018-12-20T20:36:22.704Z,36.33
2018-12-20T20:39:02.519Z,35.27
2018-12-20T20:41:41.501Z,37.27
2018-12-20T20:44:22.636Z,35.57
2018-12-20T20:46:53.604Z,40.50
2018-12-20T20:49:34.800Z,35.87
2018-12-20T20:52:11.006Z,34.93
2018-12-20T20:54:48.052Z,37.70
2018-12-20T20:57:28.165Z,36.60
2018-12-20T20:59:56.321Z,35.07
2018-12-20T21:02:24.903Z,35.97
2018-12-20T21:04:52.776Z,35.70
2018-12-20T21:07:19.689Z,34.17
2018-12-20T21:09:47.187Z,35.57
2018-12-20T21:12:22.597Z,34.60
2018-12-20T21:14:52.366Z,33.63
2018-12-20T21:17:28.897Z,30.67
2018-12-20T21:20:02.122Z,32.73
2018-12-20T21:22:41.207Z,31.13
2018-12-20T21:25:08.079Z,30.47
2018-12-20T21:27:37.990Z,31.43
2018-12-20T21:30:15.976Z,29.87
2018-12-20T21:32:53.585Z,32.77
2018-12-20T21:35:34.264Z,31.47
2018-12-20T21:38:05.376Z,32.00
2018-12-20T21:40:39.033Z,30.63
2018-12-20T21:43:13.905Z,32.73
2018-12-20T21:45:48.037Z,31.13
2018-12-20T21:48:18.477Z,31.63
2018-12-20T21:50:51.832Z,33.33
2018-12-20T21:53:25.148Z,31.77
2018-12-20T21:56:06.663Z,30.00
2018-12-20T21:58:46.506Z,24.70
2018-12-20T22:01:19.962Z,31.67
2018-12-20T22:03:54.796Z,31.63
2018-12-20T22:06:27.994Z,31.43
2018-12-20T22:09:07.565Z,32.03
2018-12-20T22:11:44.413Z,32.27
2018-12-20T22:14:17.616Z,29.73
2018-12-20T22:16:53.447Z,31.57
2018-12-20T22:19:24.124Z,31.33
2018-12-20T22:21:54.551Z,31.07
2018-12-20T22:24:28.023Z,31.63
2018-12-20T22:27:05.047Z,34.50
2018-12-20T22:29:35.192Z,31.27
2018-12-20T22:32:05.691Z,34.90
2018-12-20T22:34:35.888Z,31.73
2018-12-20T22:37:05.884Z,31.83
2018-12-20T22:39:35.703Z,32.93
2018-12-20T22:42:12.557Z,31.87
2018-12-20T22:44:42.349Z,34.57
2018-12-20T22:47:19.064Z,32.37
2018-12-20T22:49:52.004Z,29.97
2018-12-20T22:52:27.158Z,28.87
2018-12-20T22:55:00.954Z,31.60
2018-12-20T22:57:33.893Z,29.10
2018-12-20T23:00:10.203Z,28.93
2018-12-20T23:02:41.117Z,29.20
2018-12-20T23:05:17.816Z,28.17
2018-12-20T23:07:51.786Z,29.13
2018-12-20T23:10:26.249Z,28.67
2018-12-20T23:13:02.058Z,27.10
2018-12-20T23:15:37.459Z,30.80
2018-12-20T23:18:11.351Z,27.07
2018-12-20T23:20:50.841Z,28.27
2018-12-20T23:23:21.418Z,23.83
2018-12-20T23:25:58.718Z,27.27
2018-12-20T23:28:31.903Z,26.97
2018-12-20T23:31:06.183Z,25.40
2018-12-20T23:33:35.990Z,25.97
2018-12-20T23:36:08.621Z,25.77
2018-12-20T23:38:42.271Z,26.10
2018-12-20T23:41:12.275Z,23.93
2018-12-20T23:43:45.106Z,25.27
2018-12-20T23:46:15.412Z,25.43
2018-12-20T23:48:49.020Z,25.23
2018-12-20T23:51:22.829Z,25.77
2018-12-20T23:54:02.036Z,25.70
2018-12-20T23:56:35.134Z,25.83
2018-12-20T23:59:06.402Z,27.73
